Time;durP1;ratioP1;P1;durP2;ratioP2;P2;SDS_P1;SDS_P2;PMS_P1;PMS_P2;Temp;Humidity;BMP_temperature;BMP_pressure;BME280_temperature;BME280_humidity;BME280_pressure;Samples;Min_cycle;Max_cycle;Signal;HPM_P1;HPM_P2
2023/02/28 00:00:29;;;;;;;;;;;;;;;18.56;61.53;102446.76;2327690;76;50434;-74
2023/02/28 00:03:34;;;;;;;;;;;;;;;18.51;61.58;102451.19;2327582;75;50974;-74
2023/02/28 00:06:34;;;;;;;;;;;;;;;18.47;61.68;102454.66;2303523;75;22391;-73
2023/02/28 00:09:36;;;;;;;;;;;;;;;18.42;61.77;102449.33;2303181;76;52347;-75
2023/02/28 00:12:37;;;;;;;;;;;;;;;18.39;62.06;102446.92;2327705;76;50315;-76
2023/02/28 00:15:39;;;;;;;;;;;;;;;18.41;62.18;102444.97;2327671;76;51496;-74
2023/02/28 00:18:40;;;;;;;;;;;;;;;18.45;62.00;102451.76;2327520;74;50759;-74
2023/02/28 00:21:42;;;;;;;;;;;;;;;18.50;61.85;102451.69;2303348;76;52353;-72
2023/02/28 00:24:44;;;;;;;;;;;;;;;18.57;61.69;102449.78;2325835;75;51563;-73
2023/02/28 00:27:46;;;;;;;;;;;;;;;18.61;61.53;102457.41;2304700;77;50718;-73
2023/02/28 00:30:47;;;;;;;;;;;;;;;18.65;61.39;102446.78;2308796;77;50432;-72
2023/02/28 00:33:50;;;;;;;;;;;;;;;18.63;61.34;102447.41;2284938;77;51553;-73
2023/02/28 00:36:52;;;;;;;;;;;;;;;18.61;61.37;102451.21;2308592;77;50787;-74
2023/02/28 00:39:53;;;;;;;;;;;;;;;18.57;61.42;102454.64;2308880;77;51512;-73
2023/02/28 00:42:55;;;;;;;;;;;;;;;18.53;61.47;102449.72;2308976;77;51539;-74
2023/02/28 00:45:57;;;;;;;;;;;;;;;18.49;61.68;102453.16;2284710;77;52369;-74
2023/02/28 00:48:58;;;;;;;;;;;;;;;18.43;61.86;102451.88;2308913;77;51464;-75
2023/02/28 00:52:00;;;;;;;;;;;;;;;18.39;62.05;102450.95;2310887;77;51926;-74
2023/02/28 00:55:01;;;;;;;;;;;;;;;18.33;62.26;102449.67;2315506;75;51467;-74
2023/02/28 00:58:03;;;;;;;;;;;;;;;18.33;62.28;102449.67;2238285;77;51157;-74
2023/02/28 01:01:04;;;;;;;;;;;;;;;18.36;62.34;102453.41;2263231;77;50215;-74
2023/02/28 01:04:06;;;;;;;;;;;;;;;18.39;62.24;102453.13;2263199;77;50038;-74
2023/02/28 01:07:08;;;;;;;;;;;;;;;18.45;62.06;102455.28;2262951;77;50710;-74
2023/02/28 01:10:10;;;;;;;;;;;;;;;18.48;61.96;102449.63;2238491;77;51095;-74
2023/02/28 01:13:12;;;;;;;;;;;;;;;18.54;61.82;102454.09;2263091;77;51945;-75
2023/02/28 01:16:13;;;;;;;;;;;;;;;18.58;61.65;102448.81;2288645;76;51586;-74
2023/02/28 01:19:15;;;;;;;;;;;;;;;18.62;61.51;102451.05;2263241;77;50076;-74
2023/02/28 01:22:16;;;;;;;;;;;;;;;18.63;61.40;102449.25;2238353;77;51651;-74
2023/02/28 01:25:18;;;;;;;;;;;;;;;18.59;61.49;102443.30;2312966;76;51506;-74
2023/02/28 01:28:19;;;;;;;;;;;;;;;18.56;61.52;102449.44;2288686;76;50710;-74
2023/02/28 01:31:21;;;;;;;;;;;;;;;18.51;61.59;102436.45;2288819;77;51516;-74
2023/02/28 01:34:23;;;;;;;;;;;;;;;18.46;61.81;102440.03;2238550;77;51311;-74
2023/02/28 01:37:24;;;;;;;;;;;;;;;18.42;62.04;102436.80;2288633;76;51499;-75
2023/02/28 01:40:26;;;;;;;;;;;;;;;18.36;62.15;102435.98;2288838;77;51508;-74
2023/02/28 01:43:29;;;;;;;;;;;;;;;18.32;62.44;102435.93;2288846;77;51574;-75
2023/02/28 01:46:31;;;;;;;;;;;;;;;18.33;62.45;102439.45;2262853;76;52379;-74
2023/02/28 01:49:32;;;;;;;;;;;;;;;18.35;62.37;102434.31;2288862;77;51505;-74
2023/02/28 01:52:34;;;;;;;;;;;;;;;18.41;62.18;102439.60;2289324;77;52103;-74
2023/02/28 01:55:36;;;;;;;;;;;;;;;18.47;62.04;102435.89;2309962;76;51451;-74
2023/02/28 01:58:37;;;;;;;;;;;;;;;18.52;61.93;102440.81;2284663;77;52871;-74
2023/02/28 02:01:39;;;;;;;;;;;;;;;18.59;61.78;102434.41;2306807;77;50159;-74
2023/02/28 02:04:42;;;;;;;;;;;;;;;18.63;61.71;102430.48;2282996;77;50367;-74
2023/02/28 02:07:44;;;;;;;;;;;;;;;18.64;61.60;102433.50;2306664;76;51519;-74
2023/02/28 02:10:50;;;;;;;;;;;;;;;18.61;61.65;102434.63;2282951;77;51207;-74
2023/02/28 02:14:03;;;;;;;;;;;;;;;18.57;61.70;102435.88;2307012;77;51502;-75
2023/02/28 02:17:15;;;;;;;;;;;;;;;18.54;61.71;102433.48;2306648;76;50406;-73
2023/02/28 02:20:18;;;;;;;;;;;;;;;18.49;61.79;102429.87;2305177;77;51578;-73
2023/02/28 02:23:21;;;;;;;;;;;;;;;18.43;61.98;102434.45;2282157;76;52344;-73
2023/02/28 02:26:28;;;;;;;;;;;;;;;18.37;62.15;102436.36;2282632;76;51548;-72
2023/02/28 02:29:40;;;;;;;;;;;;;;;18.33;62.34;102432.25;2288404;77;50400;-74
2023/02/28 02:33:00;;;;;;;;;;;;;;;18.30;62.51;102436.55;2288799;77;51361;-74
2023/02/28 02:36:03;;;;;;;;;;;;;;;18.34;62.42;102425.05;2262841;76;49570;-74
2023/02/28 02:39:09;;;;;;;;;;;;;;;18.42;62.24;102432.78;2288792;77;50382;-74
2023/02/28 02:42:18;;;;;;;;;;;;;;;18.48;62.08;102433.55;2288787;77;50412;-74
2023/02/28 02:45:21;;;;;;;;;;;;;;;18.54;61.90;102436.66;2288820;77;50296;-74
2023/02/28 02:48:25;;;;;;;;;;;;;;;18.58;61.76;102436.25;2262645;77;51225;-75
2023/02/28 02:51:26;;;;;;;;;;;;;;;18.58;61.83;102434.07;2288775;77;51506;-74
2023/02/28 02:54:29;;;;;;;;;;;;;;;18.56;61.81;102431.52;2277779;77;51468;-74
2023/02/28 02:57:35;;;;;;;;;;;;;;;18.52;61.78;102429.25;2308588;76;50428;-74
2023/02/28 03:00:38;;;;;;;;;;;;;;;18.49;61.81;102441.09;2301306;77;50423;-74
2023/02/28 03:03:39;;;;;;;;;;;;;;;18.43;61.89;102429.09;2308769;77;50854;-73
2023/02/28 03:06:41;;;;;;;;;;;;;;;18.37;62.02;102431.00;2308636;77;50377;-74
2023/02/28 03:09:44;;;;;;;;;;;;;;;18.33;62.18;102436.27;2308699;77;50706;-75
2023/02/28 03:12:47;;;;;;;;;;;;;;;18.30;62.35;102431.19;2284652;77;51646;-74
2023/02/28 03:15:56;;;;;;;;;;;;;;;18.27;62.45;102440.36;2308542;77;50639;-74
2023/02/28 03:19:00;;;;;;;;;;;;;;;18.20;60.19;102436.52;2308795;76;50476;-73
2023/02/28 03:22:03;;;;;;;;;;;;;;;18.13;57.84;102436.70;2308801;76;50428;-76
2023/02/28 03:25:15;;;;;;;;;;;;;;;18.17;56.94;102433.28;2331480;75;50155;-77
2023/02/28 03:28:21;;;;;;;;;;;;;;;18.16;56.15;102438.27;2308626;77;50774;-77
2023/02/28 03:31:24;;;;;;;;;;;;;;;18.14;55.59;102441.09;2308946;77;50387;-77
2023/02/28 03:34:36;;;;;;;;;;;;;;;18.12;55.20;102448.91;2309135;76;50722;-77
2023/02/28 03:37:39;;;;;;;;;;;;;;;18.05;55.05;102453.45;2284931;77;50757;-78
2023/02/28 03:40:41;;;;;;;;;;;;;;;17.98;54.82;102450.98;2309119;77;51501;-77
2023/02/28 03:43:45;;;;;;;;;;;;;;;17.93;54.95;102449.67;2309242;77;50427;-78
2023/02/28 03:46:48;;;;;;;;;;;;;;;17.90;56.32;102445.93;2308874;77;50406;-77
2023/02/28 03:49:50;;;;;;;;;;;;;;;17.86;55.60;102448.54;2285145;77;51201;-77
2023/02/28 03:52:54;;;;;;;;;;;;;;;17.80;56.14;102449.43;2305765;77;51527;-77
2023/02/28 03:55:57;;;;;;;;;;;;;;;17.76;56.40;102451.13;2317811;76;51484;-77
2023/02/28 03:59:00;;;;;;;;;;;;;;;17.64;57.00;102442.33;2311457;76;50780;-77
2023/02/28 04:02:02;;;;;;;;;;;;;;;17.58;57.13;102449.06;2309253;77;50436;-77
2023/02/28 04:05:04;;;;;;;;;;;;;;;17.58;56.91;102447.73;2285165;77;51633;-77
2023/02/28 04:08:06;;;;;;;;;;;;;;;17.56;56.82;102450.17;2308776;77;50734;-77
2023/02/28 04:11:09;;;;;;;;;;;;;;;17.53;56.47;102445.94;2309011;77;51918;-77
2023/02/28 04:14:11;;;;;;;;;;;;;;;17.51;56.26;102453.23;2309223;77;51498;-76
2023/02/28 04:17:12;;;;;;;;;;;;;;;17.50;56.46;102458.74;2284895;77;49561;-76
2023/02/28 04:20:14;;;;;;;;;;;;;;;17.48;56.45;102454.00;2309514;77;50384;-76
2023/02/28 04:23:15;;;;;;;;;;;;;;;17.46;56.73;102458.14;2308945;77;50412;-76
2023/02/28 04:26:17;;;;;;;;;;;;;;;17.43;56.95;102448.20;2297923;77;50735;-76
2023/02/28 04:29:19;;;;;;;;;;;;;;;17.40;56.99;102449.31;2274219;77;51492;-76
2023/02/28 04:32:21;;;;;;;;;;;;;;;17.38;57.22;102453.94;2288893;77;50263;-75
2023/02/28 04:35:23;;;;;;;;;;;;;;;17.35;57.32;102459.06;2263322;77;49966;-75
2023/02/28 04:38:24;;;;;;;;;;;;;;;17.33;57.47;102463.69;2288741;76;50365;-75
2023/02/28 04:41:26;;;;;;;;;;;;;;;17.31;57.58;102464.80;2263433;77;50301;-77
2023/02/28 04:44:27;;;;;;;;;;;;;;;17.29;57.80;102460.94;2238474;77;52254;-77
2023/02/28 04:47:29;;;;;;;;;;;;;;;17.28;57.94;102459.22;2263011;77;50407;-76
2023/02/28 04:50:31;;;;;;;;;;;;;;;17.27;58.09;102464.72;2288997;77;50556;-77
2023/02/28 04:53:32;;;;;;;;;;;;;;;17.25;58.11;102459.98;2238496;77;49448;-77
2023/02/28 04:56:34;;;;;;;;;;;;;;;17.23;58.21;102468.13;2271912;76;50723;-76
2023/02/28 04:59:35;;;;;;;;;;;;;;;17.22;58.32;102469.61;2331478;74;50402;-77
2023/02/28 05:02:38;;;;;;;;;;;;;;;17.19;58.41;102464.88;2342838;76;50717;-77
2023/02/28 05:05:40;;;;;;;;;;;;;;;17.18;58.52;102471.18;2309000;74;51475;-75
2023/02/28 05:08:41;;;;;;;;;;;;;;;17.15;58.67;102471.44;2342438;74;51461;-75
2023/02/28 05:11:43;;;;;;;;;;;;;;;17.14;58.91;102470.25;2342582;76;51450;-75
2023/02/28 05:14:44;;;;;;;;;;;;;;;17.13;58.90;102473.89;2342575;76;50376;-76
2023/02/28 05:17:46;;;;;;;;;;;;;;;17.13;58.87;102472.55;2307976;76;52457;-76
2023/02/28 05:20:48;;;;;;;;;;;;;;;17.13;58.85;102476.06;2342556;75;51542;-76
2023/02/28 05:23:49;;;;;;;;;;;;;;;17.10;58.99;102483.02;2342543;76;51433;-74
2023/02/28 05:26:52;;;;;;;;;;;;;;;17.10;59.04;102487.52;2333946;76;51951;-76
2023/02/28 05:29:54;;;;;;;;;;;;;;;17.09;59.03;102481.33;2265071;76;50941;-77
2023/02/28 05:32:55;;;;;;;;;;;;;;;17.07;59.12;102481.94;2327689;75;50296;-74
2023/02/28 05:35:57;;;;;;;;;;;;;;;17.04;59.19;102480.87;2327586;75;50565;-75
2023/02/28 05:38:58;;;;;;;;;;;;;;;17.04;59.26;102480.87;2303511;75;50468;-74
2023/02/28 05:42:00;;;;;;;;;;;;;;;17.04;59.29;102480.87;2303217;76;51138;-76
2023/02/28 05:45:02;;;;;;;;;;;;;;;17.03;59.30;102483.20;2303740;76;50398;-73
2023/02/28 05:48:03;;;;;;;;;;;;;;;17.01;59.46;102489.65;2302996;76;50633;-73
2023/02/28 05:51:05;;;;;;;;;;;;;;;17.00;59.57;102491.45;2327702;76;50715;-72
2023/02/28 05:54:07;;;;;;;;;;;;;;;16.96;59.59;102495.38;2277548;76;51599;-74
2023/02/28 05:57:08;;;;;;;;;;;;;;;16.97;59.66;102496.56;2326632;76;51476;-74
2023/02/28 06:00:10;;;;;;;;;;;;;;;16.97;59.47;102489.88;2331249;76;50736;-73
2023/02/28 06:03:12;;;;;;;;;;;;;;;17.00;59.79;102496.80;2308021;76;50710;-72
2023/02/28 06:06:13;;;;;;;;;;;;;;;16.97;59.48;102497.05;2281908;77;51528;-73
2023/02/28 06:09:15;;;;;;;;;;;;;;;16.98;59.59;102494.27;2282206;77;50733;-73
2023/02/28 06:12:17;;;;;;;;;;;;;;;17.00;59.51;102497.29;2281999;77;50890;-71
2023/02/28 06:15:20;;;;;;;;;;;;;;;16.98;59.34;102506.30;2305856;77;50431;-73
2023/02/28 06:18:22;;;;;;;;;;;;;;;17.00;59.48;102503.48;2282319;77;50725;-75
2023/02/28 06:21:23;;;;;;;;;;;;;;;17.06;59.69;102502.99;2282072;76;51572;-73
2023/02/28 06:24:27;;;;;;;;;;;;;;;17.16;60.04;102501.71;2305856;77;51560;-74
2023/02/28 06:27:28;;;;;;;;;;;;;;;17.24;59.96;102506.42;2301804;75;22179;-72
2023/02/28 06:30:33;;;;;;;;;;;;;;;17.31;59.67;102504.93;2256742;77;52319;-74
2023/02/28 06:33:35;;;;;;;;;;;;;;;17.34;59.79;102512.69;2310900;77;51476;-74
2023/02/28 06:36:36;;;;;;;;;;;;;;;17.43;59.73;102514.61;2308907;76;50316;-74
2023/02/28 06:39:38;;;;;;;;;;;;;;;17.50;59.42;102523.82;2309139;77;50723;-74
2023/02/28 06:42:40;;;;;;;;;;;;;;;17.54;59.42;102523.90;2284981;77;49665;-74
2023/02/28 06:45:43;;;;;;;;;;;;;;;17.59;59.20;102525.70;2309129;76;50511;-73
2023/02/28 06:48:44;;;;;;;;;;;;;;;17.65;58.74;102527.03;2285543;77;51503;-74
2023/02/28 06:51:46;;;;;;;;;;;;;;;17.74;58.53;102534.75;2309480;76;50711;-74
2023/02/28 06:54:59;;;;;;;;;;;;;;;17.81;58.23;102537.30;2276936;76;51724;-73
2023/02/28 06:57:51;;;;;;;;;;;;;;;17.91;58.05;102538.70;2346521;74;22173;-74
2023/02/28 07:00:52;;;;;;;;;;;;;;;18.03;57.85;102535.81;2327729;74;50762;-74
2023/02/28 07:03:54;;;;;;;;;;;;;;;18.15;57.69;102542.41;2350345;76;50618;-74
2023/02/28 07:06:56;;;;;;;;;;;;;;;18.27;57.63;102541.34;2295422;75;50999;-71
2023/02/28 07:09:58;;;;;;;;;;;;;;;18.38;57.45;102543.07;2301366;76;52258;-74
2023/02/28 07:13:00;;;;;;;;;;;;;;;18.49;57.35;102542.95;2310494;77;51504;-75
2023/02/28 07:16:05;;;;;;;;;;;;;;;18.60;57.22;102547.36;2309691;76;50751;-75
2023/02/28 07:19:07;;;;;;;;;;;;;;;18.70;57.01;102548.23;2285958;77;49479;-74
2023/02/28 07:22:08;;;;;;;;;;;;;;;18.75;56.95;102546.02;2299266;75;50388;-74
2023/02/28 07:25:10;;;;;;;;;;;;;;;18.72;57.17;102543.09;2324533;75;50750;-74
2023/02/28 07:28:12;;;;;;;;;;;;;;;18.70;57.23;102550.44;2310882;76;51504;-75
2023/02/28 07:31:14;;;;;;;;;;;;;;;18.68;57.31;102547.55;2285144;77;52471;-73
2023/02/28 07:34:16;;;;;;;;;;;;;;;18.64;57.39;102548.79;2311281;76;51787;-75
2023/02/28 07:37:17;;;;;;;;;;;;;;;18.59;57.48;102549.69;2295047;75;50288;-73
2023/02/28 07:40:19;;;;;;;;;;;;;;;18.55;57.68;102550.94;2299471;76;50453;-73
2023/02/28 07:43:20;;;;;;;;;;;;;;;18.55;57.72;102553.16;2286648;76;51058;-73
2023/02/28 07:46:22;;;;;;;;;;;;;;;18.60;57.62;102555.40;2330195;74;50376;-73
2023/02/28 07:49:24;;;;;;;;;;;;;;;18.62;57.56;102553.44;2326470;75;50405;-73
2023/02/28 07:52:26;;;;;;;;;;;;;;;18.62;57.57;102552.09;2290324;75;50491;-73
2023/02/28 07:55:27;;;;;;;;;;;;;;;18.60;57.55;102553.59;2281029;76;52378;-75
2023/02/28 07:58:29;;;;;;;;;;;;;;;18.57;57.61;102562.37;2292402;77;51530;-75
2023/02/28 08:01:31;;;;;;;;;;;;;;;18.52;57.69;102549.88;2268654;77;50758;-75
2023/02/28 08:04:33;;;;;;;;;;;;;;;18.48;57.77;102552.83;2268388;78;50692;-74
2023/02/28 08:07:34;;;;;;;;;;;;;;;18.45;58.00;102554.45;2295854;77;52318;-74
2023/02/28 08:10:36;;;;;;;;;;;;;;;18.44;58.03;102563.46;2287168;75;50365;-74
2023/02/28 08:13:37;;;;;;;;;;;;;;;18.45;58.00;102555.80;2302259;75;49805;-76
2023/02/28 08:16:39;;;;;;;;;;;;;;;18.50;57.89;102558.92;2300048;75;50446;-76
2023/02/28 08:19:40;;;;;;;;;;;;;;;18.53;57.79;102562.31;2281746;76;50689;-75
2023/02/28 08:22:42;;;;;;;;;;;;;;;18.55;57.67;102553.16;2313739;76;50420;-75
2023/02/28 08:25:44;;;;;;;;;;;;;;;18.59;57.59;102553.72;2302008;77;50805;-74
2023/02/28 08:28:45;;;;;;;;;;;;;;;18.64;57.51;102557.67;2302543;77;50308;-75
2023/02/28 08:31:47;;;;;;;;;;;;;;;18.68;57.41;102559.61;2241490;78;51618;-76
2023/02/28 08:34:49;;;;;;;;;;;;;;;18.72;57.33;102562.36;2270827;78;51472;-75
2023/02/28 08:37:50;;;;;;;;;;;;;;;18.74;57.21;102559.05;2270756;77;51608;-74
2023/02/28 08:40:54;;;;;;;;;;;;;;;18.72;57.19;102559.67;2247916;78;49954;-76
2023/02/28 08:43:55;;;;;;;;;;;;;;;18.68;57.27;102563.63;2241984;78;51642;-76
2023/02/28 08:46:57;;;;;;;;;;;;;;;18.64;57.40;102564.88;2248156;78;51386;-73
2023/02/28 08:49:59;;;;;;;;;;;;;;;18.58;57.50;102565.44;2271331;78;51549;-76
2023/02/28 08:53:00;;;;;;;;;;;;;;;18.52;57.65;102567.30;2277898;76;51449;-73
2023/02/28 08:56:06;;;;;;;;;;;;;;;18.44;57.79;102566.14;2276495;74;50967;-74
2023/02/28 08:59:09;;;;;;;;;;;;;;;18.41;57.91;102564.23;2310211;76;51524;-74
2023/02/28 09:02:12;;;;;;;;;;;;;;;18.40;57.97;102557.19;2271796;77;50809;-73
2023/02/28 09:05:13;;;;;;;;;;;;;;;18.43;58.02;102564.45;2283082;76;51512;-73
2023/02/28 09:08:15;;;;;;;;;;;;;;;18.47;57.95;102567.23;2270478;78;51021;-73
2023/02/28 09:11:18;;;;;;;;;;;;;;;18.54;57.84;102562.16;2294708;77;50749;-74
2023/02/28 09:14:20;;;;;;;;;;;;;;;18.60;57.69;102565.66;2309060;77;51566;-73
2023/02/28 09:17:21;;;;;;;;;;;;;;;18.61;57.56;102570.52;2308975;77;49981;-75
2023/02/28 09:20:23;;;;;;;;;;;;;;;18.59;57.50;102569.80;2280922;77;50951;-73
2023/02/28 09:23:24;;;;;;;;;;;;;;;18.55;57.52;102571.05;2274856;77;51636;-74
2023/02/28 09:26:27;;;;;;;;;;;;;;;18.50;57.58;102575.00;2283651;77;50425;-73
2023/02/28 09:29:28;;;;;;;;;;;;;;;18.45;57.66;102559.81;2297852;77;50731;-74
2023/02/28 09:32:30;;;;;;;;;;;;;;;18.40;57.79;102561.21;2302309;76;52426;-73
2023/02/28 09:35:31;;;;;;;;;;;;;;;18.35;57.85;102565.63;2308975;77;51416;-72
2023/02/28 09:38:33;;;;;;;;;;;;;;;18.31;58.01;102563.34;2308486;77;51342;-72
2023/02/28 09:41:47;;;;;;;;;;;;;;;18.29;58.03;102556.80;2308928;76;49975;-73
2023/02/28 09:44:43;;;;;;;;;;;;;;;18.31;58.05;102565.53;2307968;76;22379;-72
2023/02/28 09:47:44;;;;;;;;;;;;;;;18.36;58.02;102567.31;2308635;77;50362;-72
2023/02/28 09:50:47;;;;;;;;;;;;;;;18.42;57.93;102568.59;2308945;77;50485;-72
2023/02/28 09:53:49;;;;;;;;;;;;;;;18.44;57.88;102567.48;2304961;75;50526;-71
2023/02/28 09:56:52;;;;;;;;;;;;;;;18.48;57.86;102563.56;2270503;77;51617;-72
2023/02/28 10:00:12;;;;;;;;;;;;;;;18.53;57.74;102564.50;2287890;77;50881;-72
2023/02/28 10:03:26;;;;;;;;;;;;;;;18.53;57.75;102574.38;2283673;77;51507;-73
2023/02/28 10:06:33;;;;;;;;;;;;;;;18.49;57.78;102579.98;2268115;78;50563;-74
2023/02/28 10:09:34;;;;;;;;;;;;;;;18.44;57.87;102562.12;2245763;78;52414;-74
2023/02/28 10:12:36;;;;;;;;;;;;;;;18.41;57.85;102569.09;2268501;77;50793;-74
2023/02/28 10:15:37;;;;;;;;;;;;;;;18.37;57.94;102577.06;2268542;77;50399;-74
2023/02/28 10:18:41;;;;;;;;;;;;;;;18.34;58.06;102565.75;2295863;77;50165;-74
2023/02/28 10:21:44;;;;;;;;;;;;;;;18.30;58.21;102569.70;2267698;77;51167;-73
2023/02/28 10:24:46;;;;;;;;;;;;;;;18.28;58.24;102568.48;2289685;77;50163;-75
2023/02/28 10:27:47;;;;;;;;;;;;;;;18.29;58.41;102570.20;2305551;76;51886;-74
2023/02/28 10:30:50;;;;;;;;;;;;;;;18.33;58.44;102562.73;2286706;76;50381;-74
2023/02/28 10:33:51;;;;;;;;;;;;;;;18.38;58.37;102560.48;2271243;77;52348;-74
2023/02/28 10:36:53;;;;;;;;;;;;;;;18.43;58.28;102561.77;2283627;77;51410;-74
2023/02/28 10:39:56;;;;;;;;;;;;;;;18.45;58.13;102567.86;2285022;77;51527;-73
2023/02/28 10:43:04;;;;;;;;;;;;;;;18.45;58.08;102561.16;2291022;77;51520;-74
2023/02/28 10:46:10;;;;;;;;;;;;;;;18.42;58.07;102565.45;2263474;77;52222;-73
2023/02/28 10:49:16;;;;;;;;;;;;;;;18.36;58.10;102564.63;2277905;77;50433;-75
2023/02/28 10:52:37;;;;;;;;;;;;;;;18.32;58.33;102576.63;2281025;77;49769;-74
2023/02/28 10:55:39;;;;;;;;;;;;;;;18.28;58.44;102569.82;2282074;77;50394;-74
2023/02/28 10:58:59;;;;;;;;;;;;;;;18.25;58.53;102558.87;2266166;77;51165;-74
2023/02/28 11:02:01;;;;;;;;;;;;;;;18.23;58.61;102555.98;2308926;77;50356;-74
2023/02/28 11:05:03;;;;;;;;;;;;;;;18.23;58.49;102551.95;2284987;75;50430;-76
2023/02/28 11:08:14;;;;;;;;;;;;;;;18.23;58.31;102547.94;2268390;77;50644;-74
2023/02/28 11:11:16;;;;;;;;;;;;;;;18.27;58.13;102546.70;2274208;77;51109;-74
2023/02/28 11:14:22;;;;;;;;;;;;;;;18.28;58.07;102539.84;2297840;77;50734;-73
2023/02/28 11:17:26;;;;;;;;;;;;;;;18.33;57.97;102541.29;2303586;75;50727;-72
2023/02/28 11:20:28;;;;;;;;;;;;;;;18.36;57.92;102539.17;2311244;76;51998;-73
2023/02/28 11:23:31;;;;;;;;;;;;;;;18.40;57.90;102536.59;2252955;77;52606;-72
2023/02/28 11:26:37;;;;;;;;;;;;;;;18.44;57.74;102535.81;2270467;77;51599;-72
2023/02/28 11:29:40;;;;;;;;;;;;;;;18.44;57.61;102527.27;2294718;76;50364;-73
2023/02/28 11:32:42;;;;;;;;;;;;;;;18.42;57.61;102519.88;2278171;76;51491;-74
2023/02/28 11:35:44;;;;;;;;;;;;;;;18.39;57.64;102528.17;2262081;77;51173;-73
2023/02/28 11:38:45;;;;;;;;;;;;;;;18.37;57.75;102525.27;2295645;76;50705;-72
2023/02/28 11:42:03;;;;;;;;;;;;;;;18.32;57.79;102523.02;2294049;76;50454;-73
2023/02/28 11:45:25;;;;;;;;;;;;;;;18.28;57.86;102521.59;2326224;76;51502;-73
2023/02/28 11:48:28;;;;;;;;;;;;;;;18.26;57.98;102518.19;2284868;77;51277;-73
2023/02/28 11:51:31;;;;;;;;;;;;;;;18.25;57.93;102513.83;2327317;76;50346;-74
2023/02/28 11:54:49;;;;;;;;;;;;;;;18.20;58.09;102518.73;2308711;76;51534;-73
2023/02/28 11:58:04;;;;;;;;;;;;;;;18.21;58.14;102517.28;2314884;75;50714;-74
2023/02/28 12:01:17;;;;;;;;;;;;;;;18.30;57.90;102524.98;2289714;76;52308;-73
2023/02/28 12:04:29;;;;;;;;;;;;;;;18.36;57.64;102516.89;2342288;76;51967;-73
2023/02/28 12:07:35;;;;;;;;;;;;;;;18.40;57.62;102518.33;2341637;74;50705;-72
2023/02/28 12:10:38;;;;;;;;;;;;;;;18.39;57.67;102512.09;2342268;76;51486;-72
2023/02/28 12:13:50;;;;;;;;;;;;;;;18.36;57.72;102509.69;2317741;76;51727;-72
2023/02/28 12:17:00;;;;;;;;;;;;;;;18.34;57.76;102510.34;2329558;74;51510;-73
2023/02/28 12:20:18;;;;;;;;;;;;;;;18.30;57.81;102508.91;2308947;77;51531;-73
2023/02/28 12:23:24;;;;;;;;;;;;;;;18.25;57.92;102507.13;2308950;76;50416;-74
2023/02/28 12:26:31;;;;;;;;;;;;;;;18.22;58.03;102508.74;2283844;76;51620;-73
2023/02/28 12:29:37;;;;;;;;;;;;;;;18.20;58.11;102501.33;2316781;76;50387;-74
2023/02/28 12:32:39;;;;;;;;;;;;;;;18.19;58.18;102495.63;2321126;76;52194;-72
2023/02/28 12:35:59;;;;;;;;;;;;;;;18.21;58.24;102498.52;2308687;77;50694;-74
2023/02/28 12:39:02;;;;;;;;;;;;;;;18.25;58.12;102485.69;2300430;76;22266;-72
2023/02/28 12:42:08;;;;;;;;;;;;;;;18.32;58.03;102486.84;2309358;75;50770;-72
2023/02/28 12:45:23;;;;;;;;;;;;;;;18.38;57.90;102471.55;2308430;77;50417;-74
2023/02/28 12:48:26;;;;;;;;;;;;;;;18.39;57.86;102471.89;2314248;75;50791;-73
2023/02/28 12:51:28;;;;;;;;;;;;;;;18.37;57.88;102464.97;2268262;77;52309;-72
2023/02/28 12:54:34;;;;;;;;;;;;;;;18.35;57.92;102458.43;2317710;76;51521;-73
2023/02/28 12:57:37;;;;;;;;;;;;;;;18.34;57.98;102450.52;2323219;75;50354;-73
2023/02/28 13:00:41;;;;;;;;;;;;;;;18.31;58.06;102437.39;2335336;74;50867;-74
2023/02/28 13:23:16;;;;;;;;;;;;;;;18.35;58.38;102426.27;2094680;84;22214;-74
2023/02/28 13:36:30;;;;;;;;;;;;;;;;;;;;;
2023/02/28 14:13:00;;;;;;;;;;;;;;;18.32;58.35;102401.09;2069872;84;22375;-74
2023/02/28 14:16:07;;;;;;;;;;;;;;;18.27;58.45;102399.32;2002578;88;22466;-73
2023/02/28 17:43:53;;;;;;;;;;;;;;;18.09;55.49;102405.00;2254516;77;22465;-73
2023/02/28 17:47:10;;;;;;;;;;;;;;;18.01;55.89;102404.34;2249800;78;51521;-73
2023/02/28 17:50:16;;;;;;;;;;;;;;;17.98;56.21;102402.78;2246302;77;22559;-73
2023/02/28 17:53:32;;;;;;;;;;;;;;;18.01;56.38;102405.17;2311544;72;51484;-73
2023/02/28 17:57:06;;;;;;;;;;;;;;;18.03;56.61;102399.66;2284399;76;50491;-74
2023/02/28 18:00:07;;;;;;;;;;;;;;;18.02;56.70;102406.02;2280081;74;22576;-74
2023/02/28 18:03:31;;;;;;;;;;;;;;;;;;;;;
2023/02/28 18:06:47;;;;;;;;;;;;;;;17.98;57.12;102402.78;2250867;77;22425;-75
2023/02/28 18:09:52;;;;;;;;;;;;;;;18.00;57.04;102406.64;2228576;79;50453;-75
2023/02/28 18:12:54;;;;;;;;;;;;;;;17.97;57.50;102405.08;2251289;77;22351;-73
2023/02/28 18:16:23;;;;;;;;;;;;;;;;;;;;;
2023/02/28 18:30:27;;;;;;;;;;;;;;;;;;;;;
2023/02/28 18:33:19;;;;;;;;;;;;;;;18.10;57.40;102414.71;2281041;77;22202;-74
2023/02/28 18:37:00;;;;;;;;;;;;;;;;;;;;;
2023/02/28 18:40:05;;;;;;;;;;;;;;;18.11;57.42;102421.75;2274675;78;22324;-73
2023/02/28 18:43:06;;;;;;;;;;;;;;;18.09;57.39;102425.92;2208182;76;51412;-73
2023/02/28 18:49:34;;;;;;;;;;;;;;;18.03;57.60;102430.00;2260141;78;22033;-73
2023/02/28 18:59:32;;;;;;;;;;;;;;;18.03;58.03;102444.73;2223583;77;22438;-74
2023/02/28 19:09:22;;;;;;;;;;;;;;;18.13;57.85;102431.84;2240084;78;22203;-74
2023/02/28 19:12:45;;;;;;;;;;;;;;;18.13;57.88;102432.69;2304593;75;22514;-73
2023/02/28 19:16:01;;;;;;;;;;;;;;;;;;;;;
2023/02/28 19:26:04;;;;;;;;;;;;;;;17.95;59.14;102424.45;1975698;88;22372;-74
2023/02/28 19:29:11;;;;;;;;;;;;;;;17.92;59.29;102416.69;1903045;92;22275;-74
2023/02/28 19:32:36;;;;;;;;;;;;;;;17.91;59.21;102423.05;1893526;92;22459;-73
2023/02/28 19:52:36;;;;;;;;;;;;;;;18.07;58.30;102434.58;1816579;96;23000;-74
2023/02/28 19:55:42;;;;;;;;;;;;;;;18.05;58.24;102432.03;1799160;93;52624;-73
2023/02/28 20:06:12;;;;;;;;;;;;;;;;;;;;;
2023/02/28 20:09:30;;;;;;;;;;;;;;;17.95;58.45;102432.48;1973533;89;22466;-74
2023/02/28 20:16:08;;;;;;;;;;;;;;;17.97;58.41;102427.84;1923440;91;22459;-74
2023/02/28 20:19:13;;;;;;;;;;;;;;;18.02;58.59;102429.63;1949318;89;22263;-74
2023/02/28 20:22:35;;;;;;;;;;;;;;;18.09;59.01;102432.63;2023212;85;22401;-76
2023/02/28 20:25:46;;;;;;;;;;;;;;;18.14;59.31;102438.92;2016835;87;22406;-74
2023/02/28 20:36:05;;;;;;;;;;;;;;;;;;;;;
2023/02/28 20:55:08;;;;;;;;;;;;;;;18.04;63.14;102408.08;2032591;86;22196;-73
2023/02/28 21:05:22;;;;;;;;;;;;;;;18.18;62.35;102408.17;2135127;79;22518;-74
2023/02/28 21:29:45;;;;;;;;;;;;;;;;;;;;;
2023/02/28 21:36:33;;;;;;;;;;;;;;;;;;;;;
2023/02/28 21:46:15;;;;;;;;;;;;;;;18.29;62.70;102406.73;1810613;96;22699;-74
2023/02/28 21:49:22;;;;;;;;;;;;;;;18.35;62.43;102404.83;1807092;96;22492;-75
2023/02/28 21:52:38;;;;;;;;;;;;;;;;;;;;;
2023/02/28 22:02:14;;;;;;;;;;;;;;;18.30;62.75;102419.13;1854137;94;22478;-75
2023/02/28 22:05:34;;;;;;;;;;;;;;;18.25;63.01;102415.52;1868597;93;51405;-74
2023/02/28 22:08:52;;;;;;;;;;;;;;;18.19;63.48;102415.24;1902481;92;22466;-76
2023/02/28 22:11:58;;;;;;;;;;;;;;;18.14;63.74;102420.16;1898618;93;23095;-75
2023/02/28 22:15:18;;;;;;;;;;;;;;;;;;;;;
2023/02/28 22:18:24;;;;;;;;;;;;;;;18.10;63.57;102421.41;1986830;88;22581;-74
2023/02/28 22:24:40;;;;;;;;;;;;;;;18.25;62.95;102426.24;2235877;78;22151;-75
2023/02/28 22:28:03;;;;;;;;;;;;;;;;;;;;;
2023/02/28 22:34:12;;;;;;;;;;;;;;;18.31;62.92;102437.39;2310919;76;22849;-75
2023/02/28 22:37:24;;;;;;;;;;;;;;;18.27;62.98;102440.36;2341427;75;22066;-75
2023/02/28 22:43:29;;;;;;;;;;;;;;;18.17;63.28;102433.28;2205060;79;22430;-75
2023/02/28 22:46:51;;;;;;;;;;;;;;;18.11;63.60;102437.83;2204228;79;49766;-75
2023/02/28 22:53:46;;;;;;;;;;;;;;;;;;;;;
2023/02/28 22:56:57;;;;;;;;;;;;;;;18.08;63.70;102431.41;2156264;80;22617;-76
2023/02/28 23:00:08;;;;;;;;;;;;;;;18.16;63.49;102439.14;2135196;82;22192;-75